Time;durP1;ratioP1;P1;durP2;ratioP2;P2;SDS_P1;SDS_P2;PMS_P1;PMS_P2;Temp;Humidity;BMP_temperature;BMP_pressure;BME280_temperature;BME280_humidity;BME280_pressure;Samples;Min_cycle;Max_cycle;Signal;HPM_P1;HPM_P2
2021/05/18 00:00:28;;;;;;;1.38;0.73;;;19.10;53.10;;;;;;5049202;28;20024;-76
2021/05/18 00:02:55;;;;;;;1.00;0.70;;;19.00;53.40;;;;;;5065759;28;20024;-75
2021/05/18 00:05:25;;;;;;;1.55;0.80;;;19.00;53.60;;;;;;5048731;28;20037;-75
2021/05/18 00:07:58;;;;;;;0.60;0.60;;;19.10;53.30;;;;;;5073539;28;20021;-75
2021/05/18 00:13:12;;;;;;;2.58;0.90;;;19.00;53.10;;;;;;5076551;28;20085;-75
2021/05/18 00:15:40;;;;;;;3.05;0.80;;;18.90;53.40;;;;;;5066394;28;20032;-75
2021/05/18 00:18:07;;;;;;;2.55;1.45;;;18.80;53.70;;;;;;5071585;28;20025;-75
2021/05/18 00:20:35;;;;;;;2.97;1.17;;;18.80;53.90;;;;;;5065381;28;20499;-76
2021/05/18 00:23:06;;;;;;;0.90;0.90;;;18.70;53.50;;;;;;5073516;28;20040;-76
2021/05/18 00:25:32;;;;;;;1.48;1.10;;;18.80;53.70;;;;;;5068158;28;20107;-78
2021/05/18 00:27:59;;;;;;;7.15;1.92;;;18.80;53.70;;;;;;5070388;28;20044;-77
2021/05/18 00:30:25;;;;;;;1.33;1.23;;;18.80;53.90;;;;;;5072308;28;20039;-76
2021/05/18 00:32:52;;;;;;;4.20;1.00;;;18.80;53.90;;;;;;5064474;28;20035;-75
2021/05/18 00:35:19;;;;;;;3.08;1.10;;;18.80;53.60;;;;;;5062814;28;20120;-76
2021/05/18 00:37:46;;;;;;;4.53;1.42;;;18.80;53.80;;;;;;5060520;28;20025;-77
2021/05/18 00:40:16;;;;;;;2.70;2.28;;;18.70;53.70;;;;;;5074474;28;20028;-76
2021/05/18 00:42:53;;;;;;;2.67;0.82;;;18.60;53.70;;;;;;5065517;28;20017;-76
2021/05/18 00:45:36;;;;;;;1.38;0.90;;;18.60;53.80;;;;;;5076098;28;20021;-76
2021/05/18 00:48:05;;;;;;;4.75;1.40;;;18.70;53.50;;;;;;5082794;28;20024;-75
2021/05/18 00:50:33;;;;;;;2.70;1.10;;;18.60;53.90;;;;;;5058057;28;20028;-75
2021/05/18 00:53:00;;;;;;;1.23;1.13;;;18.40;54.60;;;;;;5067273;28;20374;-75
2021/05/18 01:00:44;;;;;;;5.45;1.52;;;18.40;53.70;;;;;;5077057;28;20084;-75
2021/05/18 01:03:11;;;;;;;3.17;1.65;;;18.30;54.10;;;;;;5071110;28;20017;-75
2021/05/18 01:08:23;;;;;;;6.32;1.52;;;18.10;54.40;;;;;;5072490;28;20067;-76
2021/05/18 01:10:50;;;;;;;3.60;2.00;;;18.10;54.70;;;;;;5070757;28;20108;-75
2021/05/18 01:13:16;;;;;;;4.85;1.30;;;18.00;55.10;;;;;;5082431;28;20032;-75
2021/05/18 01:15:43;;;;;;;6.63;2.40;;;17.90;55.00;;;;;;5072278;28;20032;-75
2021/05/18 01:18:09;;;;;;;2.83;1.83;;;17.80;55.40;;;;;;5081256;28;20060;-75
2021/05/18 01:20:41;;;;;;;3.53;1.40;;;17.80;55.60;;;;;;5075752;28;20063;-75
2021/05/18 01:23:08;;;;;;;3.22;1.85;;;17.80;55.50;;;;;;5075908;28;20036;-75
2021/05/18 01:25:35;;;;;;;8.18;1.75;;;17.70;55.70;;;;;;5073408;28;20048;-75
2021/05/18 01:28:01;;;;;;;8.35;1.58;;;17.70;55.90;;;;;;5079967;28;20080;-75
2021/05/18 01:30:28;;;;;;;3.47;1.80;;;17.60;55.90;;;;;;5074223;28;20025;-75
2021/05/18 01:32:54;;;;;;;6.25;1.50;;;17.60;56.00;;;;;;5069939;28;20091;-75
2021/05/18 01:35:20;;;;;;;5.57;1.50;;;17.40;56.20;;;;;;5071618;28;20024;-74
2021/05/18 01:37:48;;;;;;;2.20;1.38;;;17.40;56.80;;;;;;5068530;28;20078;-75
2021/05/18 01:43:00;;;;;;;4.32;1.00;;;17.30;57.00;;;;;;5061287;28;20017;-75
2021/05/18 01:45:32;;;;;;;3.92;1.85;;;17.20;57.30;;;;;;5070725;28;20489;-76
2021/05/18 01:48:03;;;;;;;7.28;1.40;;;17.30;57.20;;;;;;5068180;28;20103;-76
2021/05/18 01:50:30;;;;;;;1.30;1.20;;;17.30;57.10;;;;;;5069760;28;20462;-76
2021/05/18 01:52:57;;;;;;;4.15;1.27;;;17.20;57.10;;;;;;5051581;28;20036;-77
2021/05/18 01:55:36;;;;;;;2.83;1.23;;;17.00;57.20;;;;;;5072778;28;20048;-75
2021/05/18 01:58:03;;;;;;;14.50;1.90;;;17.10;57.70;;;;;;5068705;28;20020;-76
2021/05/18 02:00:34;;;;;;;5.93;1.73;;;17.00;57.60;;;;;;5050420;28;20371;-76
2021/05/18 02:03:00;;;;;;;1.13;1.10;;;16.90;58.10;;;;;;5072317;28;20027;-76
2021/05/18 02:05:35;;;;;;;5.10;2.50;;;16.90;57.80;;;;;;5056995;28;20107;-76
2021/05/18 02:08:03;;;;;;;3.13;1.35;;;16.80;57.90;;;;;;5070221;28;20099;-76
2021/05/18 02:10:30;;;;;;;4.00;1.52;;;16.80;58.20;;;;;;5057604;28;20167;-76
2021/05/18 02:12:57;;;;;;;4.80;1.60;;;16.70;58.30;;;;;;5064592;28;20472;-76
2021/05/18 02:26:28;;;;;;;5.55;1.60;;;16.40;59.00;;;;;;5070078;28;20442;-77
2021/05/18 02:28:55;;;;;;;1.83;0.95;;;16.20;59.30;;;;;;5072488;28;20029;-78
2021/05/18 02:31:23;;;;;;;8.02;2.08;;;16.20;59.30;;;;;;5060220;28;20029;-78
2021/05/18 02:33:50;;;;;;;5.07;1.90;;;16.20;59.90;;;;;;5071325;28;20039;-76
2021/05/18 02:36:22;;;;;;;2.88;1.50;;;16.20;59.40;;;;;;5072294;28;20367;-77
2021/05/18 02:38:49;;;;;;;11.43;2.35;;;16.10;59.70;;;;;;5070868;28;20100;-77
2021/05/18 02:41:15;;;;;;;1.95;1.27;;;16.30;59.70;;;;;;5069032;28;20044;-77
2021/05/18 02:43:55;;;;;;;2.80;1.35;;;16.20;59.00;;;;;;5069446;28;21046;-76
2021/05/18 02:49:10;;;;;;;;;;;16.30;58.90;;;;;;5078924;28;20027;-76
2021/05/18 02:51:39;;;;;;;0.95;0.80;;;16.30;59.00;;;;;;5068523;28;19909;-77
2021/05/18 02:54:06;;;;;;;2.30;1.02;;;16.20;59.30;;;;;;5079798;28;20069;-77
2021/05/18 02:56:47;;;;;;;1.70;1.25;;;16.20;59.50;;;;;;5043490;28;20037;-77
2021/05/18 02:59:19;;;;;;;1.85;1.27;;;16.00;59.60;;;;;;5074256;28;20021;-77
2021/05/18 03:01:50;;;;;;;3.85;1.98;;;16.00;59.80;;;;;;5069905;28;20116;-76
2021/05/18 03:04:17;;;;;;;6.63;1.65;;;15.80;60.10;;;;;;5072900;28;20024;-77
2021/05/18 03:06:47;;;;;;;7.10;1.52;;;15.90;60.40;;;;;;5045865;28;20063;-78
2021/05/18 03:09:15;;;;;;;11.13;2.22;;;15.70;60.10;;;;;;5062737;28;20109;-77
2021/05/18 03:11:43;;;;;;;4.82;1.70;;;15.80;60.70;;;;;;5068963;28;20162;-79
2021/05/18 03:14:11;;;;;;;8.80;1.30;;;15.70;60.70;;;;;;5077957;28;20519;-78
2021/05/18 03:16:39;;;;;;;6.55;1.80;;;15.50;60.80;;;;;;5055133;28;20123;-77
2021/05/18 03:19:08;;;;;;;6.00;1.85;;;15.60;61.10;;;;;;5072487;28;20444;-76
2021/05/18 03:21:36;;;;;;;3.35;1.67;;;15.60;60.90;;;;;;5071405;28;20036;-76
2021/05/18 03:24:02;;;;;;;4.70;1.95;;;15.50;61.40;;;;;;5071475;28;20028;-77
2021/05/18 03:26:29;;;;;;;3.92;1.52;;;15.40;61.70;;;;;;5072021;28;20033;-76
2021/05/18 03:29:01;;;;;;;2.53;1.10;;;15.40;61.20;;;;;;5067929;28;20027;-75
2021/05/18 03:36:55;;;;;;;6.57;2.17;;;15.20;61.50;;;;;;5067175;28;20205;-76
2021/05/18 03:39:22;;;;;;;3.30;1.70;;;15.20;61.40;;;;;;5077863;28;20020;-76
2021/05/18 03:42:01;;;;;;;4.63;1.70;;;15.30;61.90;;;;;;5070250;28;20024;-76
2021/05/18 03:53:25;;;;;;;3.50;1.50;;;15.00;62.40;;;;;;5080136;28;20050;-77
2021/05/18 04:17:27;;;;;;;2.40;1.52;;;15.40;61.60;;;;;;5077575;28;20055;-76
2021/05/18 05:16:00;;;;;;;5.72;2.30;;;14.60;64.00;;;;;;5072729;28;20388;-77
2021/05/18 05:18:27;;;;;;;5.47;2.20;;;14.80;63.80;;;;;;5076879;28;20035;-76
2021/05/18 05:20:53;;;;;;;7.68;2.28;;;14.70;63.60;;;;;;5073044;28;20032;-76
2021/05/18 05:23:20;;;;;;;2.45;1.65;;;14.60;64.20;;;;;;5080426;28;20035;-76
2021/05/18 05:25:46;;;;;;;6.05;1.52;;;14.60;64.40;;;;;;5054368;28;20024;-77
2021/05/18 05:28:13;;;;;;;3.08;1.70;;;14.70;63.90;;;;;;5079458;28;20032;-77
2021/05/18 05:30:39;;;;;;;4.20;1.85;;;14.50;64.00;;;;;;5077612;28;20111;-77
2021/05/18 05:33:06;;;;;;;4.35;2.22;;;14.80;64.00;;;;;;5082052;28;20036;-77
2021/05/18 05:35:32;;;;;;;4.60;1.70;;;14.70;63.60;;;;;;5075897;28;20020;-76
2021/05/18 05:37:58;;;;;;;7.38;3.92;;;14.70;64.00;;;;;;5079366;28;20363;-77
2021/05/18 05:40:25;;;;;;;5.55;2.13;;;14.70;63.80;;;;;;5081214;28;20535;-76
2021/05/18 05:42:51;;;;;;;2.75;1.90;;;14.50;64.60;;;;;;5076065;28;20024;-75
2021/05/18 05:45:18;;;;;;;7.28;1.70;;;14.50;64.50;;;;;;5055585;28;20036;-76
2021/05/18 05:47:45;;;;;;;5.75;2.50;;;14.50;64.60;;;;;;5075480;28;20205;-75
2021/05/18 05:50:11;;;;;;;6.82;2.38;;;14.60;64.10;;;;;;5067987;28;20024;-76
2021/05/18 05:52:38;;;;;;;5.38;1.80;;;14.70;63.70;;;;;;5071274;28;20028;-75
2021/05/18 05:55:08;;;;;;;2.03;1.52;;;14.70;64.20;;;;;;5084635;28;20028;-75
2021/05/18 05:57:35;;;;;;;8.73;3.42;;;14.90;64.20;;;;;;5070557;28;20355;-75
2021/05/18 06:00:05;;;;;;;6.13;2.25;;;14.80;63.60;;;;;;5079584;28;20078;-75
2021/05/18 06:02:31;;;;;;;6.60;2.28;;;14.60;63.90;;;;;;5075087;28;20032;-76
2021/05/18 06:04:58;;;;;;;8.52;2.35;;;14.60;63.90;;;;;;5077260;28;20077;-76
2021/05/18 06:07:24;;;;;;;4.05;1.58;;;14.70;64.30;;;;;;5071269;28;20016;-75
2021/05/18 06:09:57;;;;;;;2.45;1.77;;;14.90;64.80;;;;;;5078477;28;20012;-75
2021/05/18 06:12:49;;;;;;;4.85;2.90;;;14.90;64.40;;;;;;5077990;28;20203;-75
2021/05/18 06:29:27;;;;;;;8.90;1.88;;;14.70;64.20;;;;;;5087385;28;20107;-75
2021/05/18 06:37:35;;;;;;;7.28;2.08;;;14.70;64.70;;;;;;5029634;28;20029;-75
2021/05/18 06:43:14;;;;;;;14.57;3.50;;;14.80;65.30;;;;;;4976410;28;20027;-75
2021/05/18 06:48:22;;;;;;;12.85;3.20;;;14.60;65.20;;;;;;5084490;28;20020;-74
2021/05/18 06:50:49;;;;;;;4.60;3.08;;;14.70;65.80;;;;;;5069570;28;20083;-75
2021/05/18 06:53:16;;;;;;;2.88;1.85;;;14.60;65.60;;;;;;5073901;28;20032;-75
2021/05/18 06:55:43;;;;;;;4.07;1.50;;;14.50;65.30;;;;;;5065030;28;20352;-75
2021/05/18 06:58:12;;;;;;;3.75;1.77;;;14.40;65.50;;;;;;5072155;28;20077;-75
2021/05/18 07:00:42;;;;;;;6.68;2.47;;;14.40;65.80;;;;;;5069600;28;20052;-75
2021/05/18 07:03:15;;;;;;;4.05;2.70;;;14.50;65.70;;;;;;5073296;28;20016;-75
2021/05/18 07:08:54;;;;;;;6.07;2.67;;;14.50;65.20;;;;;;5065215;28;20404;-76
2021/05/18 07:11:00;;;;;;;6.03;1.52;;;14.30;65.60;;;;;;5069363;28;21092;-75
2021/05/18 07:13:26;;;;;;;13.48;2.47;;;14.30;65.60;;;;;;5063833;28;20040;-75
2021/05/18 07:15:53;;;;;;;3.42;1.73;;;14.20;66.10;;;;;;5072620;28;20056;-76
2021/05/18 07:18:19;;;;;;;7.40;2.10;;;14.20;66.10;;;;;;5065865;28;20020;-75
2021/05/18 07:20:46;;;;;;;5.43;2.13;;;14.40;65.70;;;;;;5085193;28;20020;-75
2021/05/18 07:23:16;;;;;;;9.10;1.77;;;14.30;65.70;;;;;;5054157;28;21721;-76
2021/05/18 07:25:42;;;;;;;5.32;2.40;;;14.30;65.60;;;;;;5055870;28;20032;-75
2021/05/18 07:28:09;;;;;;;10.45;3.22;;;14.30;65.70;;;;;;5066409;28;20017;-76
2021/05/18 07:30:40;;;;;;;7.53;2.78;;;14.20;65.80;;;;;;5072372;28;20512;-76
2021/05/18 07:33:07;;;;;;;2.75;2.40;;;14.30;65.90;;;;;;5082754;28;20104;-75
2021/05/18 07:35:34;;;;;;;3.97;1.58;;;14.20;65.80;;;;;;5057615;28;20032;-75
2021/05/18 07:38:01;;;;;;;6.68;2.15;;;14.30;65.90;;;;;;5067586;28;20048;-75
2021/05/18 07:40:28;;;;;;;6.90;2.13;;;14.30;65.60;;;;;;5056913;28;20097;-75
2021/05/18 07:42:54;;;;;;;4.72;2.60;;;14.40;66.30;;;;;;5069931;28;20028;-76
2021/05/18 07:45:26;;;;;;;7.10;2.95;;;14.40;65.80;;;;;;5073639;28;20082;-75
2021/05/18 07:48:00;;;;;;;10.40;4.55;;;14.30;66.10;;;;;;5079515;28;20020;-75
2021/05/18 07:50:44;;;;;;;4.18;2.33;;;14.30;66.60;;;;;;5065509;28;20448;-76
2021/05/18 08:06:53;;;;;;;5.38;2.53;;;14.20;66.80;;;;;;5061533;28;20537;-77
2021/05/18 08:09:22;;;;;;;5.60;1.80;;;14.30;66.60;;;;;;5056588;28;20068;-77
2021/05/18 08:11:48;;;;;;;4.35;1.92;;;14.40;66.50;;;;;;5063396;28;20368;-77
2021/05/18 08:14:17;;;;;;;6.20;2.95;;;14.40;66.00;;;;;;5078046;28;20086;-77
2021/05/18 09:35:50;;;;;;;4.07;1.77;;;14.20;65.40;;;;;;5075759;28;20039;-77
2021/05/18 10:22:21;;;;;;;10.45;3.38;;;14.20;66.20;;;;;;5024527;28;20083;-77
2021/05/18 10:35:33;;;;;;;10.10;2.45;;;13.90;66.10;;;;;;5071031;28;20460;-77
2021/05/18 10:38:04;;;;;;;10.48;2.50;;;14.00;66.10;;;;;;5061038;28;20391;-77
2021/05/18 10:40:34;;;;;;;5.97;2.38;;;13.90;66.30;;;;;;5072230;28;20024;-77
2021/05/18 10:43:19;;;;;;;6.05;2.42;;;13.90;66.40;;;;;;5063506;28;20034;-77
2021/05/18 10:45:56;;;;;;;4.07;2.28;;;13.90;66.50;;;;;;5057910;28;20073;-77
2021/05/18 10:48:59;;;;;;;3.35;1.52;;;14.00;66.40;;;;;;5067999;28;20027;-78
2021/05/18 10:51:34;;;;;;;6.15;3.15;;;14.10;66.30;;;;;;5055764;28;20036;-79
2021/05/18 10:54:19;;;;;;;6.65;2.47;;;14.00;66.00;;;;;;5071361;28;20029;-75
2021/05/18 10:59:36;;;;;;;6.20;2.65;;;13.80;66.60;;;;;;5078865;28;20043;-77
2021/05/18 11:02:12;;;;;;;7.63;2.88;;;14.00;66.70;;;;;;5074083;28;20035;-76
2021/05/18 11:04:42;;;;;;;6.65;2.67;;;13.90;66.20;;;;;;5055645;28;20023;-77
2021/05/18 11:07:10;;;;;;;7.43;2.00;;;14.10;66.00;;;;;;5075184;28;20035;-77
2021/05/18 11:09:37;;;;;;;4.97;2.75;;;13.90;66.10;;;;;;5072790;28;20100;-76
2021/05/18 11:12:21;;;;;;;7.18;3.47;;;13.90;66.30;;;;;;5072754;28;20115;-76
2021/05/18 11:14:58;;;;;;;2.45;2.25;;;13.80;66.50;;;;;;5075296;28;20526;-76
2021/05/18 11:17:28;;;;;;;12.43;2.20;;;13.80;66.40;;;;;;5069745;28;20044;-76
2021/05/18 11:20:02;;;;;;;6.50;2.75;;;13.80;66.70;;;;;;5079939;28;20017;-76
2021/05/18 11:25:28;;;;;;;13.63;2.80;;;13.80;66.60;;;;;;5072141;28;20086;-76
2021/05/18 11:28:07;;;;;;;5.43;1.90;;;13.80;66.80;;;;;;5052903;28;20040;-76
2021/05/18 11:30:34;;;;;;;1.73;1.63;;;13.70;66.90;;;;;;5070281;28;20085;-76
2021/05/18 11:33:00;;;;;;;7.25;1.90;;;13.60;67.00;;;;;;5076435;28;20024;-76
2021/05/18 11:35:27;;;;;;;7.40;2.85;;;13.60;67.10;;;;;;5080873;28;20398;-76
2021/05/18 11:38:14;;;;;;;6.22;3.15;;;13.70;67.10;;;;;;5082702;28;20048;-76
2021/05/18 11:40:47;;;;;;;6.15;2.28;;;13.50;67.50;;;;;;5069143;28;20051;-76
2021/05/18 11:43:17;;;;;;;3.85;1.58;;;13.60;67.30;;;;;;5080782;28;20108;-76
2021/05/18 11:45:44;;;;;;;5.68;2.13;;;13.50;67.80;;;;;;5068031;28;20070;-76
2021/05/18 11:48:17;;;;;;;4.82;2.10;;;13.50;67.30;;;;;;5088638;28;20071;-76
2021/05/18 11:50:44;;;;;;;1.85;1.75;;;13.60;67.40;;;;;;5072477;28;20031;-76
2021/05/18 11:53:31;;;;;;;4.28;1.63;;;13.70;66.70;;;;;;5059687;28;20028;-76
2021/05/18 11:55:58;;;;;;;5.68;1.50;;;13.50;67.10;;;;;;5073869;28;20024;-76
2021/05/18 11:58:24;;;;;;;6.95;2.05;;;13.70;67.00;;;;;;5053078;28;20029;-76
2021/05/18 12:00:51;;;;;;;3.90;2.03;;;13.80;66.90;;;;;;5046421;28;20479;-76
2021/05/18 12:03:17;;;;;;;2.67;2.00;;;13.70;66.90;;;;;;5042848;28;20367;-76
2021/05/18 12:05:51;;;;;;;6.15;2.35;;;13.80;66.90;;;;;;5071586;28;20021;-76
2021/05/18 12:08:38;;;;;;;5.70;2.78;;;13.90;67.40;;;;;;5079668;28;20521;-77
2021/05/18 12:11:16;;;;;;;2.55;1.83;;;14.00;66.80;;;;;;5077068;28;20033;-76
2021/05/18 12:13:45;;;;;;;4.50;2.05;;;14.10;67.20;;;;;;5076666;28;20024;-76
2021/05/18 12:16:12;;;;;;;5.72;2.70;;;14.20;67.20;;;;;;5077082;28;20029;-76
2021/05/18 12:18:42;;;;;;;4.47;3.17;;;14.10;66.70;;;;;;5076875;28;20021;-76
2021/05/18 12:21:19;;;;;;;3.28;2.53;;;14.30;66.70;;;;;;5075869;28;20029;-77
2021/05/18 12:24:07;;;;;;;5.57;2.35;;;14.30;66.70;;;;;;5066368;28;20483;-76
2021/05/18 12:26:52;;;;;;;9.63;2.63;;;14.30;67.00;;;;;;5075046;28;20031;-76
2021/05/18 12:29:42;;;;;;;7.68;2.80;;;14.40;67.00;;;;;;5075706;28;20056;-76
2021/05/18 12:32:36;;;;;;;11.38;3.13;;;14.40;66.80;;;;;;5057417;28;20085;-77
2021/05/18 12:35:06;;;;;;;4.60;1.77;;;14.30;66.80;;;;;;5067192;28;20123;-76
2021/05/18 12:37:36;;;;;;;3.38;2.08;;;14.30;67.30;;;;;;5083222;28;20033;-76
2021/05/18 12:40:25;;;;;;;13.48;4.28;;;14.20;67.20;;;;;;5057731;28;20111;-76
2021/05/18 12:42:54;;;;;;;3.40;1.92;;;14.10;67.10;;;;;;5072533;28;20067;-76
2021/05/18 12:45:24;;;;;;;2.00;1.63;;;14.20;67.10;;;;;;5067453;28;20021;-76
2021/05/18 12:47:59;;;;;;;9.40;2.70;;;14.00;67.60;;;;;;5058205;28;20074;-76
2021/05/18 12:50:55;;;;;;;5.68;2.45;;;14.00;67.80;;;;;;5081336;28;20351;-77
2021/05/18 12:53:34;;;;;;;5.78;2.38;;;14.10;67.60;;;;;;5068483;28;20140;-76
2021/05/18 12:56:01;;;;;;;5.75;2.22;;;14.30;67.30;;;;;;5065051;28;20073;-77
2021/05/18 12:58:27;;;;;;;2.60;1.98;;;14.30;67.60;;;;;;5076198;28;20048;-77
2021/05/18 13:01:05;;;;;;;7.90;3.58;;;14.30;67.30;;;;;;5075722;28;20467;-79
2021/05/18 13:03:31;;;;;;;7.53;2.58;;;14.20;67.40;;;;;;5090498;28;20017;-77
2021/05/18 13:05:58;;;;;;;8.90;2.80;;;14.20;67.80;;;;;;5076012;28;20081;-76
2021/05/18 13:08:30;;;;;;;4.65;3.53;;;14.30;67.90;;;;;;5086542;28;20024;-77
2021/05/18 13:13:39;;;;;;;2.28;2.08;;;14.20;67.80;;;;;;5080305;28;20024;-76
2021/05/18 13:16:25;;;;;;;2.20;2.03;;;14.20;67.70;;;;;;5073491;28;20028;-77
2021/05/18 13:19:00;;;;;;;7.03;4.20;;;14.20;68.00;;;;;;5061822;28;20056;-76
2021/05/18 13:21:54;;;;;;;6.75;1.70;;;14.30;67.60;;;;;;5069729;28;20078;-76
2021/05/18 13:27:08;;;;;;;2.35;2.15;;;14.20;67.60;;;;;;5015320;28;20104;-76
2021/05/18 13:29:35;;;;;;;7.00;2.10;;;14.20;67.50;;;;;;5067282;28;20028;-76
2021/05/18 13:32:03;;;;;;;10.80;2.80;;;14.20;67.80;;;;;;5073323;28;20052;-77
2021/05/18 13:34:30;;;;;;;6.50;2.47;;;14.10;67.80;;;;;;5076682;28;20042;-78
2021/05/18 13:36:56;;;;;;;4.45;1.65;;;14.20;68.10;;;;;;5081828;28;20086;-76
2021/05/18 13:39:25;;;;;;;5.32;2.67;;;14.20;67.90;;;;;;5083348;28;20467;-76
2021/05/18 13:41:52;;;;;;;3.22;1.52;;;14.30;67.60;;;;;;5072979;28;20463;-76
2021/05/18 13:44:19;;;;;;;9.95;2.88;;;14.30;67.70;;;;;;5054082;28;20090;-76
2021/05/18 13:46:47;;;;;;;5.68;2.03;;;14.30;67.40;;;;;;5076008;28;20029;-76
2021/05/18 13:49:15;;;;;;;12.73;2.25;;;14.40;67.80;;;;;;5050893;28;20029;-76
2021/05/18 13:51:42;;;;;;;3.55;1.75;;;14.30;68.00;;;;;;5095394;28;20085;-76
2021/05/18 13:54:09;;;;;;;3.10;2.35;;;14.30;68.00;;;;;;5070015;28;20467;-76
2021/05/18 13:56:35;;;;;;;3.42;2.03;;;14.20;68.10;;;;;;5093612;28;20106;-76
2021/05/18 13:59:02;;;;;;;8.07;2.22;;;14.40;68.00;;;;;;5078131;28;20032;-76
2021/05/18 14:01:28;;;;;;;2.17;1.70;;;14.30;68.20;;;;;;5079544;28;20021;-76
2021/05/18 14:03:55;;;;;;;5.30;2.53;;;14.20;68.70;;;;;;5070362;28;20467;-76
2021/05/18 14:06:22;;;;;;;8.98;2.53;;;14.20;69.00;;;;;;5087085;28;20024;-76
2021/05/18 14:08:48;;;;;;;7.80;1.85;;;14.30;68.90;;;;;;5082433;28;20048;-76
2021/05/18 14:11:20;;;;;;;9.95;2.28;;;14.40;68.90;;;;;;5071945;28;20032;-76
2021/05/18 14:13:51;;;;;;;5.68;1.85;;;14.40;68.90;;;;;;5079631;28;20115;-76
2021/05/18 14:16:21;;;;;;;15.18;2.78;;;14.60;68.40;;;;;;5073849;28;20040;-77
2021/05/18 14:18:50;;;;;;;11.10;2.53;;;14.60;68.10;;;;;;5087961;28;20450;-76
2021/05/18 14:21:19;;;;;;;9.25;2.63;;;14.70;68.30;;;;;;5059825;28;20033;-76
2021/05/18 14:26:12;;;;;;;9.90;4.55;;;14.70;67.90;;;;;;5061078;28;20460;-76
2021/05/18 14:28:39;;;;;;;8.32;1.90;;;14.70;68.00;;;;;;5080301;28;20021;-76
2021/05/18 14:31:07;;;;;;;9.82;2.78;;;14.70;68.40;;;;;;5045982;28;20052;-76
2021/05/18 14:33:35;;;;;;;7.47;2.15;;;14.90;68.00;;;;;;5076284;28;20446;-76
2021/05/18 14:36:03;;;;;;;6.63;2.03;;;15.00;68.00;;;;;;5057534;28;20032;-76
2021/05/18 14:38:30;;;;;;;6.70;2.50;;;15.10;67.30;;;;;;5070085;28;20028;-76
2021/05/18 14:42:50;;;;;;;6.28;2.72;;;15.00;67.80;;;;;;5074860;28;20025;-76
2021/05/18 14:46:48;;;;;;;;;;;15.40;66.20;;;;;;5076198;28;20025;-76
2021/05/18 14:55:00;;;;;;;10.02;2.30;;;15.60;65.30;;;;;;5073687;28;20032;-77
2021/05/18 14:57:26;;;;;;;;;;;15.60;65.30;;;;;;5076183;28;20044;-75
2021/05/18 14:59:52;;;;;;;6.50;2.13;;;15.60;65.70;;;;;;5075133;28;19904;-76
2021/05/18 15:02:19;;;;;;;6.18;2.65;;;15.60;64.90;;;;;;5055439;28;20025;-76
2021/05/18 15:04:46;;;;;;;7.82;3.38;;;15.60;65.60;;;;;;5073796;28;20024;-77
2021/05/18 15:07:13;;;;;;;7.45;1.75;;;15.60;65.40;;;;;;5080883;28;20371;-76
2021/05/18 15:09:40;;;;;;;14.77;4.30;;;15.60;65.40;;;;;;5079112;28;20385;-77
2021/05/18 15:12:09;;;;;;;5.97;2.40;;;15.80;64.80;;;;;;5089615;28;20061;-75
2021/05/18 15:14:36;;;;;;;11.50;2.58;;;15.80;65.20;;;;;;5046109;28;20114;-75
2021/05/18 15:17:03;;;;;;;4.32;1.70;;;15.80;65.20;;;;;;5076980;28;20033;-75
2021/05/18 15:19:30;;;;;;;6.95;2.20;;;15.90;64.30;;;;;;5073156;28;20040;-75
2021/05/18 15:21:59;;;;;;;7.95;2.70;;;16.00;64.20;;;;;;5093082;28;20082;-75
2021/05/18 15:24:26;;;;;;;8.63;2.40;;;16.00;64.10;;;;;;5071273;28;20021;-75
2021/05/18 15:26:53;;;;;;;6.30;2.63;;;16.10;63.70;;;;;;5075398;28;20017;-75
2021/05/18 15:29:21;;;;;;;10.30;2.65;;;16.20;63.50;;;;;;5076870;28;20032;-75
2021/05/18 15:31:48;;;;;;;8.27;2.10;;;16.20;63.70;;;;;;5085920;28;20027;-74
2021/05/18 15:34:14;;;;;;;5.00;2.65;;;16.30;63.30;;;;;;5060771;28;20482;-75
2021/05/18 15:36:42;;;;;;;3.85;1.88;;;16.20;63.70;;;;;;5071528;28;20460;-76
2021/05/18 15:39:09;;;;;;;7.78;2.17;;;16.30;63.90;;;;;;5069961;28;20032;-76
2021/05/18 15:41:35;;;;;;;7.63;2.72;;;16.50;62.90;;;;;;5078084;28;20028;-75
2021/05/18 15:44:03;;;;;;;5.40;2.22;;;16.40;63.40;;;;;;5093034;28;20015;-75
2021/05/18 15:46:31;;;;;;;10.73;2.38;;;16.40;63.50;;;;;;5046552;28;20036;-75
2021/05/18 15:48:57;;;;;;;13.32;3.00;;;16.50;63.30;;;;;;5067452;28;20411;-75
2021/05/18 15:51:23;;;;;;;5.63;2.08;;;16.80;62.40;;;;;;5069238;28;20024;-74
2021/05/18 15:53:50;;;;;;;6.03;1.90;;;16.80;63.00;;;;;;5073590;28;20040;-76
2021/05/18 15:56:18;;;;;;;8.95;2.55;;;17.00;61.20;;;;;;5071000;28;20044;-75
2021/05/18 15:58:44;;;;;;;6.00;1.40;;;17.00;61.50;;;;;;5073712;28;20025;-75
2021/05/18 16:01:10;;;;;;;4.20;1.75;;;16.90;62.40;;;;;;5066700;28;20309;-75
2021/05/18 16:03:37;;;;;;;8.93;3.38;;;17.00;61.70;;;;;;5076351;28;20024;-75
2021/05/18 16:06:03;;;;;;;7.57;1.77;;;17.10;61.70;;;;;;5071030;28;20029;-75
2021/05/18 16:10:59;;;;;;;5.18;1.90;;;17.40;60.30;;;;;;5067017;28;20025;-76
2021/05/18 16:13:26;;;;;;;11.57;1.52;;;17.20;61.90;;;;;;5057983;28;20333;-75
2021/05/18 16:15:58;;;;;;;5.18;2.03;;;17.40;60.70;;;;;;5054068;28;20024;-75
2021/05/18 16:18:25;;;;;;;7.90;3.88;;;17.60;59.20;;;;;;5067457;28;20627;-74
2021/05/18 16:20:53;;;;;;;6.97;2.67;;;17.60;59.30;;;;;;5073894;28;20032;-75
2021/05/18 16:23:19;;;;;;;5.97;2.55;;;17.50;59.70;;;;;;5052423;28;20036;-75
2021/05/18 16:25:46;;;;;;;7.88;2.13;;;17.50;60.50;;;;;;5073981;28;20143;-75
2021/05/18 16:28:12;;;;;;;8.75;2.60;;;17.70;59.60;;;;;;5067104;28;20334;-75
2021/05/18 16:30:39;;;;;;;5.40;2.33;;;17.90;59.20;;;;;;5068017;28;20093;-75
2021/05/18 16:33:05;;;;;;;5.53;1.65;;;17.90;58.90;;;;;;5069702;28;20039;-75
2021/05/18 16:35:32;;;;;;;4.65;1.63;;;18.00;58.40;;;;;;5054508;28;20025;-75
2021/05/18 16:37:58;;;;;;;4.82;1.77;;;18.00;58.30;;;;;;5071201;28;20028;-75
2021/05/18 16:40:26;;;;;;;11.40;1.85;;;18.00;58.10;;;;;;5062254;28;20033;-75
2021/05/18 16:42:52;;;;;;;3.50;2.08;;;18.00;58.70;;;;;;5068294;28;20020;-75
2021/05/18 16:45:18;;;;;;;3.83;1.90;;;18.00;58.40;;;;;;5065017;28;20024;-75
2021/05/18 16:47:45;;;;;;;9.55;1.83;;;18.20;58.10;;;;;;5071695;28;20032;-76
2021/05/18 16:50:11;;;;;;;8.48;2.30;;;18.20;58.70;;;;;;5067651;28;20090;-76
2021/05/18 16:52:38;;;;;;;5.35;1.83;;;18.20;58.30;;;;;;5069761;28;20084;-75
2021/05/18 16:55:07;;;;;;;4.25;1.50;;;18.40;57.70;;;;;;5044123;28;20517;-76
2021/05/18 16:57:33;;;;;;;8.60;2.08;;;18.60;57.40;;;;;;5071167;28;20029;-75
2021/05/18 16:59:59;;;;;;;4.50;1.95;;;18.80;56.40;;;;;;5061103;28;20017;-75
2021/05/18 17:02:26;;;;;;;8.40;2.15;;;18.80;56.40;;;;;;5073286;28;20035;-75
2021/05/18 17:04:52;;;;;;;5.70;2.38;;;18.70;57.50;;;;;;5073269;28;20070;-77
2021/05/18 17:07:19;;;;;;;2.75;1.42;;;18.90;56.60;;;;;;5072615;28;20024;-77
2021/05/18 17:09:45;;;;;;;7.82;2.22;;;18.80;57.10;;;;;;5080102;28;20048;-77
2021/05/18 17:12:18;;;;;;;4.45;1.73;;;18.80;56.40;;;;;;5070640;28;20411;-77
2021/05/18 17:14:45;;;;;;;9.00;3.38;;;19.00;56.60;;;;;;5078524;28;20082;-81
2021/05/18 17:17:13;;;;;;;6.43;1.50;;;19.00;57.20;;;;;;5068495;28;20067;-76
2021/05/18 17:19:44;;;;;;;7.93;3.70;;;19.20;55.60;;;;;;5082128;28;20020;-78
2021/05/18 17:22:16;;;;;;;4.72;1.70;;;19.20;55.60;;;;;;5067948;28;20036;-77
2021/05/18 17:24:42;;;;;;;10.38;1.70;;;19.40;55.40;;;;;;5085418;28;20095;-76
2021/05/18 17:27:09;;;;;;;6.95;2.72;;;19.50;56.00;;;;;;5068637;28;20021;-77
2021/05/18 17:29:36;;;;;;;8.15;1.65;;;19.30;56.60;;;;;;5083858;28;20035;-76
2021/05/18 17:32:04;;;;;;;5.90;1.50;;;19.50;56.30;;;;;;5087570;28;20063;-77
2021/05/18 17:34:32;;;;;;;7.00;1.75;;;19.50;55.60;;;;;;5081037;28;20111;-77
2021/05/18 17:36:58;;;;;;;6.60;1.55;;;19.80;55.20;;;;;;5053338;28;20037;-77
2021/05/18 17:39:25;;;;;;;6.07;2.17;;;19.90;55.50;;;;;;5074148;28;20128;-76
2021/05/18 17:41:51;;;;;;;5.05;1.95;;;20.10;54.10;;;;;;5075788;28;20031;-76
2021/05/18 17:44:18;;;;;;;5.00;3.08;;;20.10;54.70;;;;;;5078414;28;20029;-75
2021/05/18 17:46:45;;;;;;;5.68;2.10;;;20.30;53.40;;;;;;5082983;28;20101;-76
2021/05/18 17:49:15;;;;;;;10.13;1.98;;;20.30;54.30;;;;;;5069955;28;20507;-76
2021/05/18 17:51:41;;;;;;;9.32;1.55;;;20.40;53.80;;;;;;5069706;28;20025;-75
2021/05/18 17:54:08;;;;;;;7.65;1.67;;;20.40;54.30;;;;;;5069052;28;20032;-76
2021/05/18 17:56:34;;;;;;;10.18;2.30;;;20.50;54.00;;;;;;5068647;28;20510;-75
2021/05/18 17:59:01;;;;;;;6.60;1.58;;;20.50;53.70;;;;;;5068553;28;20048;-77
2021/05/18 18:01:27;;;;;;;1.67;1.15;;;20.60;53.90;;;;;;5084006;28;20056;-76
2021/05/18 18:03:54;;;;;;;2.00;1.42;;;20.80;52.50;;;;;;5072385;28;20156;-75
2021/05/18 18:06:20;;;;;;;4.97;1.73;;;20.90;51.60;;;;;;5071327;28;20107;-76
2021/05/18 18:08:48;;;;;;;3.63;1.92;;;21.00;52.10;;;;;;5080650;28;20055;-76
2021/05/18 18:11:15;;;;;;;6.75;1.73;;;21.00;52.30;;;;;;5070814;28;20036;-76
2021/05/18 18:13:41;;;;;;;5.05;1.92;;;21.00;52.30;;;;;;5074026;28;20025;-75
2021/05/18 18:16:08;;;;;;;7.57;1.05;;;21.00;51.70;;;;;;5067535;28;20032;-75